D/T METAR WX W/DIR W/SPE G/SPE TEMP DEWP
25/02/20 13:20 EGNT 251320Z 27013KT 9999 SCT015 05/01 Q0992 W (270°) 15.0mph 5°C 1°C
25/02/20 12:50 EGNT 251250Z 27014KT 9999 SCT017 05/02 Q0992 W (270°) 16.1mph 5°C 2°C
25/02/20 12:20 EGNT 251220Z 27014KT 9999 SCT017 05/02 Q0992 W (270°) 16.1mph 5°C 2°C
25/02/20 11:20 EGNT 251120Z 26012KT 9999 SCT020 04/01 Q0993 W (260°) 13.8mph 4°C 1°C
25/02/20 10:50 EGNT 251050Z 27013KT 9999 SCT020 04/01 Q0993 W (270°) 15.0mph 4°C 1°C
25/02/20 10:20 EGNT 251020Z 26011KT 9999 SCT021 04/02 Q0993 W (260°) 12.7mph 4°C 2°C
25/02/20 09:50 EGNT 250950Z 27011KT 9999 FEW014 03/01 Q0993 W (270°) 12.7mph 3°C 1°C
25/02/20 09:20 EGNT 250920Z 27011KT 9999 FEW014 03/01 Q0993 W (270°) 12.7mph 3°C 1°C
25/02/20 08:50 EGNT 250850Z 26012KT 9999 FEW014 03/02 Q0993 W (260°) 13.8mph 3°C 2°C
25/02/20 07:50 EGNT 250750Z 26008KT 9999 FEW014 01/00 Q0993 W (260°) 9.2mph 1°C 0°C
25/02/20 07:20 EGNT 250720Z 26010KT 9999 FEW014 01/00 Q0993 W (260°) 11.5mph 1°C 0°C
25/02/20 06:50 EGNT 250650Z 26010KT 9999 FEW014 02/01 Q0993 W (260°) 11.5mph 2°C 1°C
25/02/20 06:20 EGNT 250620Z 27013KT 9999 FEW014 02/01 Q0993 W (270°) 15.0mph 2°C 1°C
25/02/20 05:50 EGNT 250550Z 28016KT 9999 FEW014 02/01 Q0994 W (280°) 18.4mph 2°C 1°C
25/02/20 05:20 EGNT 250520Z 28016G26KT 9999 FEW014 SCT022 03/02 Q0994 W (280°) 18.4mph 29.9mph 3°C 2°C
25/02/20 04:50 EGNT 250450Z 28015KT 9999 SCT022 03/02 Q0994 W (280°) 17.3mph 3°C 2°C
25/02/20 04:20 EGNT 250420Z 28014KT 9999 FEW015 03/02 Q0994 W (280°) 16.1mph 3°C 2°C
25/02/20 03:50 EGNT 250350Z 28014KT 9999 SCT016 02/01 Q0995 W (280°) 16.1mph 2°C 1°C
25/02/20 02:50 EGNT 250250Z 26019KT 9999 BKN015 03/02 Q0995 W (260°) 21.9mph 3°C 2°C
25/02/20 01:50 EGNT 250150Z 27019KT 9999 BKN015 03/02 Q0995 W (270°) 21.9mph 3°C 2°C
25/02/20 01:20 EGNT 250120Z 26019KT 9999 FEW015 03/02 Q0995 W (260°) 21.9mph 3°C 2°C
25/02/20 00:50 EGNT 250050Z 28014KT 9999 FEW015 02/01 Q0995 W (280°) 16.1mph 2°C 1°C
25/02/20 00:20 EGNT 250020Z 27017KT 9999 FEW020 03/01 Q0995 W (270°) 19.6mph 3°C 1°C
24/02/20 23:50 EGNT 242350Z 28016G26KT 9999 FEW018 02/01 Q0995 W (280°) 18.4mph 29.9mph 2°C 1°C
24/02/20 23:20 EGNT 242320Z 28017KT 9999 SCT019 03/01 Q0995 W (280°) 19.6mph 3°C 1°C
24/02/20 22:50 EGNT 242250Z 27020KT 9999 FEW020 03/01 Q0995 W (270°) 23.0mph 3°C 1°C
24/02/20 22:20 EGNT 242220Z 28016G26KT 9999 FEW020 02/01 Q0995 W (280°) 18.4mph 29.9mph 2°C 1°C
24/02/20 21:50 EGNT 242150Z 27019KT 9999 FEW020 03/01 Q0995 W (270°) 21.9mph 3°C 1°C
24/02/20 21:20 EGNT 242120Z 27017KT 9999 SCT019 03/01 Q0995 W (270°) 19.6mph 3°C 1°C
24/02/20 20:50 EGNT 242050Z 27020KT 9999 FEW018 03/01 Q0995 W (270°) 23.0mph 3°C 1°C
24/02/20 20:20 EGNT 242020Z 27020KT 9999 FEW015 03/01 Q0994 W (270°) 23.0mph 3°C 1°C
24/02/20 19:50 EGNT 241950Z 27021KT 9999 FEW015 03/02 Q0994 W (270°) 24.2mph 3°C 2°C
24/02/20 19:20 EGNT 241920Z 27021KT 9999 SCT014 03/02 Q0994 W (270°) 24.2mph 3°C 2°C
24/02/20 18:50 EGNT 241850Z 27019G29KT 9999 FEW012 04/03 Q0993 W (270°) 21.9mph 33.4mph 4°C 3°C
24/02/20 18:20 EGNT 241820Z 27023KT 9999 VCSH FEW012 04/03 Q0992 VCSH W (270°) 26.5mph 4°C 3°C
24/02/20 17:50 EGNT 241750Z 26022KT 9999 -RA SCT019 04/04 Q0992 -RA W (260°) 25.3mph 4°C 4°C
24/02/20 17:20 EGNT 241720Z 26024KT 9999 -RA FEW010 SCT015 04/04 Q0991 -RA W (260°) 27.6mph 4°C 4°C
24/02/20 16:50 EGNT 241650Z 26025G36KT 6000 -RA FEW010 BKN038 05/04 Q0991 -RA W (260°) 28.8mph 41.4mph 5°C 4°C
24/02/20 16:20 EGNT 241620Z 26025KT 9999 -SHRA FEW010 BKN018 05/05 Q0991 -SHRA W (260°) 28.8mph 5°C 5°C
24/02/20 15:50 EGNT 241550Z 25021KT 9999 3000NW -RA BKN011 05/05 Q0990 -RA WSW (250°) 24.2mph 5°C 5°C
24/02/20 15:20 EGNT 241520Z 26016KT 9999 FEW003 SCT014 05/05 Q0990 W (260°) 18.4mph 5°C 5°C
24/02/20 14:50 EGNT 241450Z 25003KT 5000 -RA BKN003 02/02 Q0991 -RA WSW (250°) 3.5mph 2°C 2°C
24/02/20 14:20 EGNT 241420Z VRB03KT 3500 -RA BR BKN004 02/02 Q0991 -RA BR N (0°) 3.5mph 2°C 2°C
24/02/20 13:50 EGNT 241350Z 00000KT 3000 BR BKN005 OVC009 02/02 Q0991 BR N (0°) 2°C 2°C
24/02/20 13:20 EGNT 241320Z VRB01KT 4500 BR BKN005 OVC011 02/02 Q0992 BR N (0°) 1.2mph 2°C 2°C
24/02/20 12:50 EGNT 241250Z VRB02KT 4500 BR BKN006 02/02 Q0993 BR N (0°) 2.3mph 2°C 2°C
24/02/20 12:20 EGNT 241220Z VRB02KT 4500 -RA OVC005 02/02 Q0994 -RA N (0°) 2.3mph 2°C 2°C
24/02/20 11:50 EGNT 241150Z 14005KT 080V180 4500 -RA OVC005 02/02 Q0995 R/CLRD// -RA SE (140°) 5.8mph 2°C 2°C